• Join FlightAware (Why Join?)
  • Login
  • US Flag 
07:34AM EDT


 

Airport Tracker/Info


-or-


 

Live Flight TrackerFlight Track Log ✈ SKW5516 ✈ 06-Jun-2013 ✈ KIAD - KSAT

Flight Track Log - Related Links

Times and Time Zones

All times are in EDT time to prevent confusion due to time zone crossing. See the SKW5516 flight status page for this flight to view local times or setup timezone preferences in your user account.

Time Position Orientation Groundspeed Altitude Reporting Facility
EDT Latitude Longitude Course Direction KTS MPH feet Rate Location/Type
08:59AM 38.9000 -77.4333 180° South 178 205 1,500  Level Potomac TRACON
09:00AM 38.8500 -77.4333 180° South 202 232 3,500 2,100 Climbing Potomac TRACON
09:01AM 38.7833 -77.4333 180° South 255 293 5,700 2,400 Climbing Potomac TRACON
09:02AM 38.7167 -77.4667 201° Southwest 264 304 8,300 2,520 Climbing Potomac TRACON
09:03AM 38.6333 -77.4833 189° South 278 320 10,600 1,800 Climbing Potomac TRACON
09:04AM 38.5975 -77.5361 229° Southwest 287 330 11,300 1,560 Climbing Washington Center
09:05AM 38.5275 -77.6114 220° Southwest 310 357 13,300 2,100 Climbing Washington Center
09:06AM 38.4553 -77.6861 219° Southwest 325 374 15,600 2,100 Climbing Washington Center
09:07AM 38.3850 -77.7611 220° Southwest 338 389 17,500 1,620 Climbing Washington Center
09:08AM 38.3106 -77.8408 220° Southwest 338 389 18,900 1,380 Climbing Washington Center
09:09AM 38.2342 -77.9206 219° Southwest 350 403 20,400 1,200 Climbing Washington Center
09:10AM 38.1553 -78.0025 219° Southwest 360 414 21,400 1,140 Climbing Washington Center
09:11AM 38.0722 -78.0817 217° Southwest 365 420 22,800 1,320 Climbing Washington Center
09:12AM 37.9733 -78.1339 203° Southwest 371 427 24,100 1,020 Climbing Washington Center
09:13AM 37.8911 -78.1731 201° Southwest 384 442 24,900 960 Climbing Washington Center
09:14AM 37.7750 -78.2400 205° Southwest 394 453 26,100 1,020 Climbing Washington Center
09:15AM 37.6694 -78.2942 202° Southwest 399 459 27,000 420 Climbing Washington Center
09:16AM 37.5617 -78.3531 203° Southwest 405 466 27,000 240 Level Washington Center
09:17AM 37.4883 -78.4603 229° Southwest 405 466 27,500 660 Climbing Washington Center
09:18AM 37.4292 -78.5681 235° Southwest 417 480 28,400 780 Climbing Washington Center
09:19AM 37.3514 -78.6775 228° Southwest 422 486 29,100 780 Climbing Washington Center
09:20AM 37.2672 -78.7811 224° Southwest 428 493 30,000 420 Climbing Washington Center
09:21AM 37.1811 -78.8842 224° Southwest 433 498 30,000 360 Level Washington Center
09:22AM 37.0906 -78.9922 224° Southwest 439 505 30,800 3,960 Climbing Washington Center
09:23AM 36.9972 -79.1106 225° Southwest 446 513 38,000 1,080 Climbing Washington Center
09:24AM 36.9169 -79.2186 227° Southwest 439 505 33,000 -2,220 Descending Washington Center
09:25AM 36.8425 -79.3319 231° Southwest 434 499 33,600 1,020 Climbing Washington Center
09:26AM 36.7681 -79.4397 229° Southwest 428 493 35,100 2,160 Climbing Washington Center
09:27AM 36.6958 -79.5425 229° Southwest 412 474 38,000 1,380 Climbing Washington Center
09:28AM 36.6389 -79.6300 231° Southwest 391 450 38,000  Level Washington Center
09:29AM 36.5628 -79.7406 229° Southwest 366 421 38,000  Level Atlanta Center
09:30AM 36.4972 -79.8369 230° Southwest 366 421 38,000  Level Atlanta Center
09:31AM 36.4378 -79.9253 230° Southwest 371 427 38,000  Level Atlanta Center
09:32AM 36.3719 -80.0164 228° Southwest 371 427 38,000  Level Atlanta Center
09:33AM 36.3103 -80.1122 231° Southwest 371 427 38,000  Level Atlanta Center
09:34AM 36.2444 -80.2028 228° Southwest 366 421 38,000  Level Atlanta Center
09:35AM 36.1747 -80.3064 230° Southwest 366 421 38,000  Level Atlanta Center
09:36AM 36.1108 -80.3994 230° Southwest 366 421 38,000  Level Atlanta Center
09:37AM 36.0447 -80.4947 229° Southwest 366 421 38,000  Level Atlanta Center
09:38AM 35.9806 -80.5900 230° Southwest 366 421 38,000  Level Atlanta Center
09:39AM 35.9164 -80.6772 228° Southwest 360 414 38,000  Level Atlanta Center
09:40AM 35.8522 -80.7747 231° Southwest 365 420 38,000  Level Atlanta Center
09:41AM 35.7878 -80.8669 229° Southwest 365 420 38,000  Level Atlanta Center
09:42AM 35.7233 -80.9589 229° Southwest 365 420 38,000  Level Atlanta Center
09:43AM 35.6567 -81.0483 227° Southwest 365 420 38,000  Level Atlanta Center
09:44AM 35.5881 -81.1453 229° Southwest 372 428 38,000  Level Atlanta Center
09:45AM 35.5214 -81.2369 228° Southwest 372 428 38,000  Level Atlanta Center
09:46AM 35.4550 -81.3389 231° Southwest 377 434 38,000  Level Atlanta Center
09:47AM 35.3922 -81.4275 229° Southwest 370 426 38,000  Level Atlanta Center
09:48AM 35.3253 -81.5211 229° Southwest 365 420 38,000  Level Atlanta Center
09:49AM 35.2603 -81.6122 229° Southwest 359 413 38,000  Level Atlanta Center
09:50AM 35.1975 -81.7031 230° Southwest 359 413 38,000  Level Atlanta Center
09:51AM 35.1322 -81.7936 229° Southwest 359 413 38,000  Level Atlanta Center
09:52AM 35.0672 -81.8842 229° Southwest 359 413 38,000  Level Atlanta Center
09:53AM 35.0103 -81.9669 230° Southwest 359 413 38,000  Level Atlanta Center
09:54AM 34.9514 -82.0672 234° Southwest 365 420 38,000  Level Atlanta Center
09:55AM 34.8883 -82.1700 233° Southwest 359 413 38,000  Level Atlanta Center
09:56AM 34.8269 -82.2675 233° Southwest 367 422 38,000  Level Atlanta Center
09:57AM 34.7700 -82.3622 234° Southwest 367 422 38,000  Level Atlanta Center
09:58AM 34.7108 -82.4619 234° Southwest 367 422 38,000  Level Atlanta Center
09:59AM 34.6514 -82.5592 233° Southwest 362 417 38,000  Level Atlanta Center
10:00AM 34.5817 -82.6511 227° Southwest 367 422 38,000  Level Atlanta Center
10:01AM 34.5306 -82.7453 237° Southwest 373 429 38,000  Level Atlanta Center
10:02AM 34.4708 -82.8444 234° Southwest 367 422 38,000  Level Atlanta Center
10:03AM 34.4114 -82.9411 233° Southwest 362 417 38,000  Level Atlanta Center
10:04AM 34.3494 -83.0375 232° Southwest 367 422 38,000  Level Atlanta Center
10:05AM 34.2897 -83.1361 234° Southwest 360 414 38,000  Level Atlanta Center
10:06AM 34.2278 -83.2347 233° Southwest 365 420 38,000  Level Atlanta Center
10:07AM 34.1658 -83.3333 233° Southwest 365 420 38,000  Level Atlanta Center
10:08AM 34.0997 -83.4442 234° Southwest 365 420 38,000  Level Atlanta Center
10:09AM 34.0394 -83.5400 233° Southwest 365 420 38,000  Level Atlanta Center
10:10AM 33.9772 -83.6406 233° Southwest 365 420 38,000  Level Atlanta Center
10:11AM 33.9128 -83.7383 232° Southwest 365 420 38,000  Level Atlanta Center
10:12AM 33.8506 -83.8361 233° Southwest 371 427 38,000  Level Atlanta Center
10:13AM 33.7881 -83.9364 233° Southwest 371 427 38,000  Level Atlanta Center
10:14AM 33.7233 -84.0364 232° Southwest 376 433 38,000  Level Atlanta Center
10:15AM 33.6669 -84.1261 233° Southwest 381 438 38,000  Level Atlanta Center
10:16AM 33.6019 -84.2258 232° Southwest 381 438 38,000  Level Atlanta Center
10:17AM 33.5372 -84.3253 232° Southwest 386 444 38,000  Level Atlanta Center
10:18AM 33.4722 -84.4272 233° Southwest 386 444 38,000  Level Atlanta Center
10:19AM 33.4028 -84.5389 233° Southwest 386 444 38,000  Level Atlanta Center
10:20AM 33.3397 -84.6381 233° Southwest 386 444 38,000  Level Atlanta Center
10:21AM 33.2725 -84.7419 232° Southwest 392 451 38,000  Level Atlanta Center
10:22AM 33.2092 -84.8433 233° Southwest 387 445 38,000  Level Atlanta Center
10:23AM 33.1439 -84.9419 232° Southwest 393 452 38,000  Level Atlanta Center
10:24AM 33.0764 -85.0428 231° Southwest 393 452 38,000  Level Atlanta Center
10:25AM 33.0128 -85.1436 233° Southwest 393 452 38,000  Level Atlanta Center
10:26AM 32.9472 -85.2369 230° Southwest 382 440 38,000  Level Atlanta Center
10:27AM 32.8794 -85.3400 232° Southwest 382 440 38,000  Level Atlanta Center
10:28AM 32.8114 -85.4403 231° Southwest 388 447 38,000  Level Atlanta Center
10:29AM 32.7436 -85.5453 233° Southwest 394 453 38,000  Level Atlanta Center
10:30AM 32.6733 -85.6453 230° Southwest 389 448 38,000  Level Atlanta Center
10:31AM 32.6072 -85.7478 233° Southwest 394 453 38,000  Level Atlanta Center
10:32AM 32.5389 -85.8497 232° Southwest 394 453 38,000  Level Atlanta Center
10:33AM 32.4728 -85.9469 231° Southwest 403 464 38,000  Level Atlanta Center
10:34AM 32.4003 -86.0536 231° Southwest 411 473 38,000  Level Atlanta Center
10:35AM 32.3339 -86.1528 232° Southwest 416 479 38,000  Level Atlanta Center
10:36AM 32.2631 -86.2592 232° Southwest 416 479 38,000  Level Atlanta Center
10:37AM 32.1858 -86.3775 232° Southwest 421 484 38,000  Level Atlanta Center
10:38AM 32.1169 -86.4789 231° Southwest 414 476 38,000  Level Atlanta Center
10:39AM 32.0439 -86.5797 229° Southwest 414 476 38,000  Level Atlanta Center
10:40AM 31.9708 -86.6831 230° Southwest 414 476 38,000  Level Atlanta Center
10:41AM 31.8958 -86.7761 227° Southwest 431 496 38,000  Level Atlanta Center
10:42AM 31.8244 -86.8814 231° Southwest 425 489 38,000  Level Atlanta Center
10:43AM 31.7472 -86.9792 227° Southwest 425 489 38,000  Level Atlanta Center
10:44AM 31.6672 -87.0936 231° Southwest 430 495 38,000  Level Atlanta Center
10:45AM 31.5550 -87.2403 228° Southwest 422 486 38,000  Level Houston Center
10:46AM 31.4794 -87.3447 230° Southwest 421 484 38,000  Level Houston Center
10:47AM 31.4006 -87.4497 229° Southwest 427 491 38,000  Level Houston Center
10:48AM 31.3258 -87.5544 230° Southwest 421 484 38,000  Level Houston Center
10:49AM 31.2478 -87.6594 229° Southwest 426 490 38,000  Level Houston Center
10:50AM 31.1650 -87.7711 229° Southwest 422 486 38,000  Level Houston Center
10:51AM 31.0872 -87.8742 229° Southwest 422 486 38,000  Level Houston Center
10:52AM 31.0106 -87.9764 229° Southwest 421 484 38,000  Level Houston Center
10:53AM 30.9339 -88.0778 229° Southwest 418 481 38,000  Level Houston Center
10:54AM 30.8408 -88.1994 228° Southwest 419 482 38,000  Level Houston Center
10:55AM 30.7661 -88.3003 229° Southwest 415 478 38,000  Level Houston Center
10:57AM 30.7142 -88.4222 244° Southwest 426 490 38,000  Level Houston Center
10:58AM 30.7031 -88.5625 265° West 430 495 38,000  Level Houston Center
10:59AM 30.6950 -88.7053 266° West 437 503 38,000  Level Houston Center
11:00AM 30.6853 -88.8492 266° West 442 509 38,000  Level Houston Center
11:01AM 30.6744 -89.0194 266° West 446 513 38,000  Level Houston Center
11:02AM 30.6636 -89.1642 265° West 450 518 38,000  Level Houston Center
11:03AM 30.6533 -89.3092 265° West 452 520 38,000  Level Houston Center
11:04AM 30.6433 -89.4544 265° West 453 521 38,000  Level Houston Center
11:05AM 30.6294 -89.6286 265° West 453 521 38,000  Level Houston Center
11:06AM 30.6181 -89.7733 265° West 455 524 38,000  Level Houston Center
11:07AM 30.6078 -89.9194 265° West 461 531 38,000 -60 Level Houston Center
11:08AM 30.5936 -90.0631 263° West 455 524 37,900  Descending Houston Center
11:09AM 30.5817 -90.2092 265° West 460 529 38,000  Climbing Houston Center
11:10AM 30.5664 -90.3842 264° West 459 528 38,000  Level Houston Center
11:11AM 30.5536 -90.5300 264° West 458 527 38,000  Level Houston Center
11:12AM 30.5394 -90.6767 264° West 462 532 38,000  Level Houston Center
11:13AM 30.5269 -90.8231 264° West 459 528 38,000  Level Houston Center
11:14AM 30.5131 -90.9708 264° West 462 532 38,000  Level Houston Center
11:15AM 30.4969 -91.1469 264° West 462 532 38,000  Level Houston Center
11:16AM 30.4853 -91.2944 265° West 462 532 38,000  Level Houston Center
11:17AM 30.4669 -91.4400 262° West 459 528 38,000  Level Houston Center
11:18AM 30.4500 -91.5856 262° West 457 526 38,000  Level Houston Center
11:19AM 30.4314 -91.7408 262° West 459 528 38,000  Level Houston Center
11:20AM 30.4136 -91.8861 262° West 457 526 38,000  Level Houston Center
11:21AM 30.3969 -92.0300 262° West 450 518 38,000  Level Houston Center
11:22AM 30.3756 -92.1997 262° West 444 511 38,000  Level Houston Center
11:23AM 30.3597 -92.3403 263° West 439 505 38,000  Level Houston Center
11:24AM 30.3433 -92.4739 262° West 434 499 38,000  Level Houston Center
11:25AM 30.3253 -92.6114 261° West 434 499 38,000  Level Houston Center
11:27AM 30.3089 -92.7500 262° West 434 499 38,000  Level Houston Center
11:28AM 30.2917 -92.8894 262° West 436 502 38,000  Level Houston Center
11:29AM 30.2708 -93.0567 262° West 437 503 38,000  Level Houston Center
11:30AM 30.2517 -93.1978 261° West 440 506 38,000  Level Houston Center
11:32AM 30.2128 -93.4836 261° West 446 513 38,000  Level Houston Center
11:33AM 30.1950 -93.6294 262° West 443 510 38,000 -60 Level Houston Center
11:34AM 30.1764 -93.7714 261° West 442 509 37,900  Descending Houston Center
11:35AM 30.1567 -93.9142 261° West 448 516 38,000  Climbing Houston Center
11:36AM 30.1375 -94.0564 261° West 449 517 37,900  Descending Houston Center
11:37AM 30.1142 -94.2264 261° West 449 517 38,000  Climbing Houston Center
11:38AM 30.0950 -94.3669 261° West 445 512 38,000  Level Houston Center
11:39AM 30.0753 -94.5133 261° West 441 507 38,000  Level Houston Center
11:40AM 30.0567 -94.6522 261° West 440 506 38,000  Level Houston Center
11:41AM 30.0381 -94.7883 261° West 434 499 38,000  Level Houston Center
11:42AM 30.0192 -94.9228 261° West 429 494 38,000  Level Houston Center
11:43AM 29.9992 -95.0572 260° West 428 493 38,000  Level Houston Center
11:44AM 29.9764 -95.2167 261° West 426 490 38,000  Level Houston Center
11:45AM 29.9572 -95.3483 260° West 422 486 38,000  Level Houston Center
11:46AM 29.9306 -95.4783 257° West 421 484 38,000  Level Houston Center
11:47AM 29.9031 -95.6069 256° West 419 482 38,000  Level Houston Center
11:48AM 29.8697 -95.7603 256° West 413 475 38,000 -120 Level Houston Center
11:49AM 29.8694 -95.8911 270° West 409 471 37,800 -1,260 Descending Houston Center
11:50AM 29.8719 -96.0264 271° West 426 490 35,400 -2,700 Descending Houston Center
11:51AM 29.8753 -96.1731 272° West 455 524 32,300 -2,940 Descending Houston Center
11:52AM 29.8781 -96.3217 271° West 464 534 29,400 -3,180 Descending Houston Center
11:53AM 29.8808 -96.4967 271° West 455 524 25,800 -2,640 Descending Houston Center
11:54AM 29.8825 -96.6336 271° West 437 503 24,000 -960 Descending Houston Center
11:56AM 29.8850 -96.7625 271° West 412 474 23,900 -60 Descending Houston Center
11:57AM 29.8867 -96.8953 271° West 416 479 23,900 -300 Level Houston Center
11:58AM 29.8900 -97.0292 272° West 420 483 23,300 -900 Descending Houston Center
11:59AM 29.8914 -97.1911 271° West 422 486 22,100 -1,080 Descending Houston Center
12:00PM 29.8922 -97.3206 270° West 410 472 21,100 -1,020 Descending Houston Center
12:01PM 29.8947 -97.4500 271° West 406 467 20,100 -1,680 Descending Houston Center
12:02PM 29.8950 -97.6064 270° West 397 457 17,500 -2,580 Descending Houston Center
12:02PM 29.8944 -97.6453 269° West 392 451 16,500 -2,940 Descending Houston Center
12:03PM 29.8958 -97.7192 271° West 383 441 14,700 -2,880 Descending Houston Center
12:03PM 29.8967 -97.7750 271° West 380 437 13,300 -1,680 Descending Houston Center
12:04PM 29.8975 -97.8475 271° West 374 430 13,000 -300 Descending Houston Center
12:04PM 29.8847 -97.8900 251° West 365 420 13,000 -300 Level Houston Center
12:05PM 29.8581 -97.9558 245° Southwest 374 430 12,700 -840 Descending Houston Center
12:05PM 29.8386 -98.0017 244° Southwest 361 415 12,200 -1,080 Descending Houston Center
12:06PM 29.8108 -98.0650 243° Southwest 355 409 11,600 -1,020 Descending Houston Center
12:06PM 29.7992 -98.0958 246° West 348 400 11,300 -1,020 Descending Houston Center
12:07PM 29.7739 -98.1542 243° Southwest 305 351 10,600 -1,200 Descending Houston Center
12:07PM 29.7650 -98.1794 248° West 281 323 10,100 -1,860 Descending Houston Center
12:08PM 29.7378 -98.2394 242° Southwest 275 316 8,700 -1,920 Descending Houston Center
12:08PM 29.7217 -98.2764 243° Southwest 268 308 7,800 -2,040 Descending Houston Center
12:09PM 29.7167 -98.3208 263° West 270 311 6,600 -1,860 Descending Houston Center
12:09PM 29.7158 -98.3492 268° West 276 318 6,100 -600 Descending Houston Center
12:10PM 29.7106 -98.4167 265° West 280 322 6,000 -120 Descending Houston Center
12:10PM 29.7097 -98.4439 268° West 282 325 6,000 -900 Level Houston Center
12:11PM 29.7056 -98.5033 265° West 275 316 5,100 -1,380 Descending Houston Center
12:11PM 29.7008 -98.5292 258° West 269 310 4,600 -1,260 Descending Houston Center
12:12PM 29.6364 -98.5825 216° Southwest 230 265 3,400 -960 Descending Houston Center
12:13PM 29.6069 -98.5675 156° South 205 236 2,900 -900 Descending Houston Center
12:13PM 29.5936 -98.5514 134° Southeast 176 203 2,500 -1,020 Descending Houston Center
12:14PM 29.5719 -98.5233 132° Southeast 176 203 1,900 -900 Descending Houston Center
12:15PM 29.5483 -98.4922 131° Southeast 138 159 1,000 -900 Descending Houston Center
12:17PM 29.5340 -98.4691 221° Southwest  Level Estimated
12:24PM 29.5333 -98.4667 16° North  Level FlightAware Approximate
12:25PM 29.5340 -98.4691 16° North  Level Estimated